createdAt,value
2023-05-05T00:00:09.472Z,62.22
2023-05-05T00:01:09.249Z,62.05
2023-05-05T00:02:09.216Z,62.12
2023-05-05T00:03:09.280Z,62.35
2023-05-05T00:04:09.175Z,62.83
2023-05-05T00:05:09.155Z,62.55
2023-05-05T00:06:09.152Z,62.45
2023-05-05T00:07:09.110Z,62.35
2023-05-05T00:08:09.093Z,62.45
2023-05-05T00:09:09.090Z,62.12
2023-05-05T00:10:09.299Z,62.43
2023-05-05T00:11:09.077Z,62.96
2023-05-05T00:12:09.046Z,63.33
2023-05-05T00:13:09.181Z,63.23
2023-05-05T00:14:09.037Z,63.06
2023-05-05T00:15:09.008Z,63.84
2023-05-05T00:16:09.054Z,63.23
2023-05-05T00:17:09.070Z,63.03
2023-05-05T00:18:09.020Z,62.63
2023-05-05T00:19:08.979Z,63.03
2023-05-05T00:20:09.196Z,62.43
2023-05-05T00:21:08.938Z,62.83
2023-05-05T00:22:08.942Z,62.73
2023-05-05T00:23:08.936Z,63.03
2023-05-05T00:24:08.908Z,63.16
2023-05-05T00:25:08.909Z,62.93
2023-05-05T00:26:08.909Z,63.36
2023-05-05T00:27:08.875Z,63.16
2023-05-05T00:28:08.876Z,63.46
2023-05-05T00:29:08.845Z,63.36
2023-05-05T00:30:09.097Z,63.76
2023-05-05T00:31:08.947Z,63.96
2023-05-05T00:32:08.853Z,63.79
2023-05-05T00:33:08.883Z,63.90
2023-05-05T00:34:09.807Z,64.40
2023-05-05T00:35:08.793Z,64.78
2023-05-05T00:36:08.798Z,64.58
2023-05-05T00:37:08.778Z,64.47
2023-05-05T00:38:08.762Z,64.10
2023-05-05T00:39:08.734Z,63.67
2023-05-05T00:40:08.955Z,63.76
2023-05-05T00:41:08.728Z,63.76
2023-05-05T00:42:08.721Z,64.10
2023-05-05T00:43:08.708Z,63.39
2023-05-05T00:44:08.696Z,63.76
2023-05-05T00:45:08.664Z,63.59
2023-05-05T00:46:08.690Z,63.36
2023-05-05T00:47:08.673Z,63.59
2023-05-05T00:48:08.747Z,64.00
2023-05-05T00:49:08.673Z,63.46
2023-05-05T00:50:08.806Z,62.88
2023-05-05T00:51:08.620Z,63.16
2023-05-05T00:52:08.618Z,64.17
2023-05-05T00:53:08.644Z,62.96
2023-05-05T00:54:08.566Z,62.96
2023-05-05T00:55:08.567Z,64.20
2023-05-05T00:56:08.578Z,64.47
2023-05-05T00:57:08.533Z,64.00
2023-05-05T00:58:08.538Z,64.10
2023-05-05T00:59:08.508Z,64.20
2023-05-05T01:00:08.854Z,64.30
2023-05-05T01:01:08.531Z,63.90
2023-05-05T01:02:08.481Z,63.82
2023-05-05T01:03:08.556Z,63.73
2023-05-05T01:04:08.504Z,63.90
2023-05-05T01:05:08.483Z,64.00
2023-05-05T01:06:08.465Z,64.94
2023-05-05T01:07:08.431Z,64.70
2023-05-05T01:08:08.420Z,64.81
2023-05-05T01:09:08.407Z,65.21
2023-05-05T01:10:19.879Z,65.31
2023-05-05T01:11:09.396Z,65.34
2023-05-05T01:12:08.379Z,64.64
2023-05-05T01:13:08.434Z,64.61
2023-05-05T01:14:08.416Z,64.73
2023-05-05T01:15:08.328Z,64.73
2023-05-05T01:16:08.387Z,65.04
2023-05-05T01:17:08.302Z,64.97
2023-05-05T01:18:08.352Z,64.67
2023-05-05T01:19:08.282Z,65.14
2023-05-05T01:20:08.578Z,64.97
2023-05-05T01:21:08.274Z,64.56
2023-05-05T01:22:08.254Z,65.44
2023-05-05T01:23:08.259Z,65.88
2023-05-05T01:24:08.237Z,65.78
2023-05-05T01:25:08.218Z,65.04
2023-05-05T01:26:08.224Z,66.38
2023-05-05T01:27:08.201Z,66.08
2023-05-05T01:28:08.187Z,66.28
2023-05-05T01:29:08.171Z,66.78
2023-05-05T01:30:08.343Z,66.48
2023-05-05T01:31:08.163Z,66.01
2023-05-05T01:32:08.132Z,65.17
2023-05-05T01:33:08.120Z,66.61
2023-05-05T01:34:08.142Z,66.11
2023-05-05T01:35:08.098Z,66.31
2023-05-05T01:36:08.131Z,66.38
2023-05-05T01:37:08.085Z,66.61
2023-05-05T01:38:08.059Z,66.82
2023-05-05T01:39:08.054Z,66.82
2023-05-05T01:40:08.321Z,67.12
2023-05-05T01:41:08.047Z,67.02
2023-05-05T01:42:08.017Z,67.72
2023-05-05T01:43:07.998Z,68.47
2023-05-05T01:44:08.003Z,67.76
2023-05-05T01:45:07.990Z,68.26
2023-05-05T01:46:08.028Z,68.16
2023-05-05T01:47:07.989Z,67.15
2023-05-05T01:48:07.965Z,66.85
2023-05-05T01:49:07.934Z,66.95
2023-05-05T01:50:08.204Z,66.88
2023-05-05T01:51:07.963Z,66.85
2023-05-05T01:52:07.943Z,66.78
2023-05-05T01:53:07.912Z,67.08
2023-05-05T01:54:07.896Z,68.10
2023-05-05T01:55:07.876Z,68.50
2023-05-05T01:56:07.955Z,69.61
2023-05-05T01:57:07.841Z,69.21
2023-05-05T01:58:07.854Z,68.60
2023-05-05T01:59:07.835Z,68.10
2023-05-05T02:00:08.064Z,68.33
2023-05-05T02:01:07.858Z,68.10
2023-05-05T02:02:07.839Z,68.23
2023-05-05T02:03:07.976Z,68.19
2023-05-05T02:04:07.771Z,68.73
2023-05-05T02:05:07.782Z,69.14
2023-05-05T02:06:07.746Z,68.73
2023-05-05T02:07:07.737Z,68.43
2023-05-05T02:08:07.775Z,68.53
2023-05-05T02:09:07.732Z,68.73
2023-05-05T02:10:08.100Z,69.04
2023-05-05T02:11:07.718Z,69.54
2023-05-05T02:12:07.678Z,68.73
2023-05-05T02:13:07.839Z,68.53
2023-05-05T02:14:07.677Z,68.33
2023-05-05T02:15:07.659Z,68.23
2023-05-05T02:16:07.694Z,68.02
2023-05-05T02:17:07.641Z,68.23
2023-05-05T02:18:07.738Z,68.13
2023-05-05T02:19:07.602Z,68.13
2023-05-05T02:20:07.897Z,68.80
2023-05-05T02:21:07.590Z,68.33
2023-05-05T02:22:07.587Z,68.23
2023-05-05T02:23:07.569Z,68.13
2023-05-05T02:24:07.597Z,68.13
2023-05-05T02:25:07.536Z,68.63
2023-05-05T02:26:07.551Z,69.85
2023-05-05T02:27:07.536Z,69.65
2023-05-05T02:28:07.514Z,69.24
2023-05-05T02:29:07.602Z,69.54
2023-05-05T02:30:07.802Z,69.24
2023-05-05T02:31:07.499Z,69.24
2023-05-05T02:32:07.466Z,69.34
2023-05-05T02:33:07.466Z,69.04
2023-05-05T02:34:07.464Z,68.56
2023-05-05T02:35:07.433Z,70.36
2023-05-05T02:36:07.418Z,69.78
2023-05-05T02:37:07.406Z,69.85
2023-05-05T02:38:07.403Z,70.18
2023-05-05T02:39:07.463Z,69.95
2023-05-05T02:40:07.825Z,69.78
2023-05-05T02:41:07.366Z,69.27
2023-05-05T02:42:07.373Z,70.18
2023-05-05T02:43:07.382Z,69.57
2023-05-05T02:44:07.350Z,70.08
2023-05-05T02:45:07.327Z,70.76
2023-05-05T02:46:07.339Z,70.89
2023-05-05T02:47:07.305Z,71.00
2023-05-05T02:48:07.342Z,71.23
2023-05-05T02:49:07.283Z,71.53
2023-05-05T02:50:07.606Z,71.30
2023-05-05T02:51:07.247Z,70.52
2023-05-05T02:52:07.251Z,71.13
2023-05-05T02:53:07.235Z,71.33
2023-05-05T02:54:07.260Z,71.73
2023-05-05T02:55:07.222Z,71.84
2023-05-05T02:56:07.263Z,71.73
2023-05-05T02:57:07.195Z,71.53
2023-05-05T02:58:07.193Z,71.23
2023-05-05T02:59:07.194Z,70.72
2023-05-05T03:00:07.327Z,71.64
2023-05-05T03:01:07.232Z,71.64
2023-05-05T03:02:07.157Z,71.44
2023-05-05T03:03:07.251Z,71.44
2023-05-05T03:04:07.135Z,71.44
2023-05-05T03:05:07.114Z,71.44
2023-05-05T03:06:07.125Z,71.23
2023-05-05T03:07:07.097Z,71.23
2023-05-05T03:08:07.059Z,71.64
2023-05-05T03:09:07.084Z,71.53
2023-05-05T03:10:07.234Z,71.64
2023-05-05T03:11:07.028Z,71.73
2023-05-05T03:12:07.081Z,72.24
2023-05-05T03:13:07.111Z,71.64
2023-05-05T03:14:07.022Z,72.14
2023-05-05T03:15:06.985Z,71.94
2023-05-05T03:16:07.041Z,72.14
2023-05-05T03:17:06.962Z,72.34
2023-05-05T03:18:06.984Z,72.04
2023-05-05T03:19:06.972Z,72.55
2023-05-05T03:20:07.123Z,72.34
2023-05-05T03:21:06.932Z,71.44
2023-05-05T03:22:06.922Z,72.85
2023-05-05T03:23:06.925Z,72.45
2023-05-05T03:24:06.892Z,72.65
2023-05-05T03:25:06.895Z,72.55
2023-05-05T03:26:06.856Z,72.04
2023-05-05T03:27:06.865Z,72.75
2023-05-05T03:28:06.869Z,72.04
2023-05-05T03:29:06.884Z,72.55
2023-05-05T03:30:07.028Z,72.55
2023-05-05T03:31:06.819Z,72.55
2023-05-05T03:32:06.904Z,72.14
2023-05-05T03:33:06.882Z,72.45
2023-05-05T03:34:06.804Z,72.55
2023-05-05T03:35:06.772Z,72.65
2023-05-05T03:36:06.749Z,72.14
2023-05-05T03:37:06.754Z,72.38
2023-05-05T03:38:06.755Z,72.65
2023-05-05T03:39:06.779Z,73.05
2023-05-05T03:40:07.073Z,73.09
2023-05-05T03:41:06.700Z,72.96
2023-05-05T03:42:06.678Z,72.55
2023-05-05T03:43:06.693Z,73.39
2023-05-05T03:44:06.712Z,72.99
2023-05-05T03:45:06.653Z,72.45
2023-05-05T03:46:06.668Z,73.36
2023-05-05T03:47:06.642Z,73.39
2023-05-05T03:48:06.657Z,73.16
2023-05-05T03:49:06.616Z,73.49
2023-05-05T03:50:06.877Z,72.17
2023-05-05T03:51:06.597Z,73.39
2023-05-05T03:52:06.587Z,74.00
2023-05-05T03:53:06.593Z,74.21
2023-05-05T03:54:06.580Z,74.85
2023-05-05T03:55:06.551Z,74.74
2023-05-05T03:56:06.529Z,75.05
2023-05-05T03:57:06.530Z,75.46
2023-05-05T03:58:06.528Z,75.05
2023-05-05T03:59:06.550Z,75.05
2023-05-05T04:00:06.691Z,74.95
2023-05-05T04:01:06.486Z,75.15
2023-05-05T04:02:06.498Z,75.05
2023-05-05T04:03:06.646Z,74.85
2023-05-05T04:04:06.507Z,75.15
2023-05-05T04:05:06.445Z,75.46
2023-05-05T04:06:06.428Z,75.46
2023-05-05T04:07:06.410Z,75.05
2023-05-05T04:08:06.403Z,74.95
2023-05-05T04:09:06.443Z,74.95
2023-05-05T04:10:06.506Z,74.95
2023-05-05T04:11:06.365Z,75.05
2023-05-05T04:12:06.359Z,74.44
2023-05-05T04:13:06.381Z,75.86
2023-05-05T04:14:06.319Z,75.35
2023-05-05T04:15:06.356Z,75.25
2023-05-05T04:16:06.373Z,75.19
2023-05-05T04:17:06.322Z,75.39
2023-05-05T04:18:06.334Z,76.67
2023-05-05T04:19:06.287Z,76.06
2023-05-05T04:20:06.392Z,75.86
2023-05-05T04:21:06.284Z,76.00
2023-05-05T04:22:06.249Z,75.96
2023-05-05T04:23:06.240Z,75.76
2023-05-05T04:24:06.220Z,76.47
2023-05-05T04:25:06.215Z,76.87
2023-05-05T04:26:06.204Z,76.98
2023-05-05T04:27:06.197Z,76.17
2023-05-05T04:28:06.159Z,76.47
2023-05-05T04:29:06.171Z,75.96
2023-05-05T04:30:06.454Z,76.67
2023-05-05T04:31:06.213Z,76.27
2023-05-05T04:32:06.135Z,76.06
2023-05-05T04:33:06.123Z,75.90
2023-05-05T04:34:06.121Z,75.96
2023-05-05T04:35:06.115Z,75.86
2023-05-05T04:36:06.082Z,76.06
2023-05-05T04:37:06.062Z,76.78
2023-05-05T04:38:06.048Z,76.87
2023-05-05T04:39:06.127Z,76.78
2023-05-05T04:40:06.258Z,76.98
2023-05-05T04:41:06.016Z,76.47
2023-05-05T04:42:06.003Z,76.67
2023-05-05T04:43:05.999Z,77.28
2023-05-05T04:44:05.976Z,77.08
2023-05-05T04:45:06.025Z,77.08
2023-05-05T04:46:05.999Z,77.08
2023-05-05T04:47:05.951Z,76.74
2023-05-05T04:48:06.034Z,77.25
2023-05-05T04:49:05.925Z,76.98
2023-05-05T04:50:06.125Z,76.64
2023-05-05T04:51:05.906Z,76.57
2023-05-05T04:52:05.912Z,76.64
2023-05-05T04:53:05.892Z,76.64
2023-05-05T04:54:05.876Z,77.04
2023-05-05T04:55:05.860Z,77.14
2023-05-05T04:56:05.868Z,77.34
2023-05-05T04:57:05.849Z,77.45
2023-05-05T04:58:05.831Z,77.34
2023-05-05T04:59:05.826Z,77.34
2023-05-05T05:00:05.937Z,77.04
2023-05-05T05:01:05.785Z,77.01
2023-05-05T05:02:05.847Z,77.21
2023-05-05T05:03:05.873Z,76.80
2023-05-05T05:04:05.854Z,76.90
2023-05-05T05:05:05.756Z,77.11
2023-05-05T05:06:05.738Z,77.21
2023-05-05T05:07:05.723Z,77.21
2023-05-05T05:08:05.705Z,77.01
2023-05-05T05:09:05.703Z,76.60
2023-05-05T05:10:06.009Z,76.60
2023-05-05T05:11:05.689Z,77.11
2023-05-05T05:12:05.672Z,77.28
2023-05-05T05:13:05.700Z,77.11
2023-05-05T05:14:05.646Z,77.11
2023-05-05T05:15:05.646Z,77.61
2023-05-05T05:16:05.656Z,77.82
2023-05-05T05:17:05.606Z,77.72
2023-05-05T05:18:05.749Z,77.28
2023-05-05T05:19:05.584Z,78.42
2023-05-05T05:20:05.656Z,77.78
2023-05-05T05:21:05.581Z,77.17
2023-05-05T05:22:05.563Z,77.58
2023-05-05T05:23:05.553Z,77.68
2023-05-05T05:24:05.531Z,78.08
2023-05-05T05:25:05.555Z,79.20
2023-05-05T05:26:05.495Z,79.10
2023-05-05T05:27:06.819Z,78.55
2023-05-05T05:28:10.796Z,77.98
2023-05-05T05:29:06.482Z,77.95
2023-05-05T05:30:05.631Z,78.05
2023-05-05T05:31:05.457Z,77.75
2023-05-05T05:32:05.441Z,78.45
2023-05-05T05:33:05.507Z,77.95
2023-05-05T05:34:05.405Z,77.95
2023-05-05T05:35:05.433Z,78.82
2023-05-05T05:36:05.426Z,77.61
2023-05-05T05:37:05.404Z,78.82
2023-05-05T05:38:05.378Z,78.92
2023-05-05T05:39:05.366Z,78.82
2023-05-05T05:40:05.439Z,78.52
2023-05-05T05:41:05.385Z,78.38
2023-05-05T05:42:05.350Z,78.78
2023-05-05T05:43:05.311Z,78.68
2023-05-05T05:44:05.311Z,78.58
2023-05-05T05:45:05.326Z,77.84
2023-05-05T05:46:06.942Z,77.84
2023-05-05T05:47:05.284Z,77.39
2023-05-05T05:48:05.299Z,77.09
2023-05-05T05:49:05.245Z,77.09
2023-05-05T05:50:05.386Z,76.99
2023-05-05T05:51:05.238Z,76.75
2023-05-05T05:52:05.236Z,77.06
2023-05-05T05:53:05.200Z,76.51
2023-05-05T05:54:05.196Z,76.15
2023-05-05T05:55:05.206Z,76.45
2023-05-05T05:56:05.163Z,76.42
2023-05-05T05:57:05.152Z,76.11
2023-05-05T05:58:05.151Z,76.72
2023-05-05T05:59:05.132Z,76.18
2023-05-05T06:00:05.261Z,76.21
2023-05-05T06:01:05.131Z,76.51
2023-05-05T06:02:05.111Z,76.01
2023-05-05T06:03:05.248Z,76.48
2023-05-05T06:04:05.104Z,76.48
2023-05-05T06:05:05.081Z,75.84
2023-05-05T06:06:05.044Z,75.84
2023-05-05T06:07:05.050Z,75.60
2023-05-05T06:08:05.058Z,74.49
2023-05-05T06:09:05.028Z,74.15
2023-05-05T06:10:18.559Z,73.65
2023-05-05T06:11:06.047Z,72.85
2023-05-05T06:12:04.972Z,73.05
2023-05-05T06:13:05.024Z,72.85
2023-05-05T06:14:04.958Z,72.54
2023-05-05T06:15:04.945Z,72.00
2023-05-05T06:16:05.004Z,72.11
2023-05-05T06:17:04.922Z,71.70
2023-05-05T06:18:04.991Z,71.97
2023-05-05T06:19:04.895Z,71.56
2023-05-05T06:20:04.876Z,71.97
2023-05-05T06:21:04.884Z,72.07
2023-05-05T06:22:04.855Z,71.73
2023-05-05T06:23:04.864Z,71.73
2023-05-05T06:24:04.855Z,72.24
2023-05-05T06:25:04.838Z,72.34
2023-05-05T06:26:04.855Z,71.94
2023-05-05T06:27:04.825Z,73.04
2023-05-05T06:28:04.815Z,72.71
2023-05-05T06:29:04.784Z,71.87
2023-05-05T06:30:04.899Z,71.60
2023-05-05T06:31:04.856Z,72.27
2023-05-05T06:32:04.757Z,71.53
2023-05-05T06:33:04.803Z,71.03
2023-05-05T06:34:04.745Z,70.93
2023-05-05T06:35:04.747Z,70.09
2023-05-05T06:36:04.744Z,70.09
2023-05-05T06:37:04.701Z,69.59
2023-05-05T06:38:04.696Z,69.06
2023-05-05T06:39:04.684Z,69.15
2023-05-05T06:40:04.693Z,69.26
2023-05-05T06:41:04.681Z,69.15
2023-05-05T06:42:04.655Z,69.15
2023-05-05T06:43:04.625Z,69.46
2023-05-05T06:44:04.615Z,69.66
2023-05-05T06:45:04.620Z,69.69
2023-05-05T06:46:04.616Z,69.66
2023-05-05T06:47:04.622Z,69.96
2023-05-05T06:48:04.608Z,70.16
2023-05-05T06:49:04.565Z,69.66
2023-05-05T06:50:04.553Z,69.76
2023-05-05T06:51:04.552Z,69.85
2023-05-05T06:52:04.549Z,69.96
2023-05-05T06:53:04.532Z,69.73
2023-05-05T06:54:04.518Z,70.03
2023-05-05T06:55:04.510Z,69.79
2023-05-05T06:56:04.607Z,69.66
2023-05-05T06:57:04.482Z,68.96
2023-05-05T06:58:04.454Z,68.76
2023-05-05T06:59:04.468Z,68.26
2023-05-05T07:00:04.443Z,68.42
2023-05-05T07:01:04.457Z,68.42
2023-05-05T07:02:04.414Z,68.52
2023-05-05T07:03:04.433Z,68.59
2023-05-05T07:04:04.456Z,67.89
2023-05-05T07:05:04.399Z,67.52
2023-05-05T07:06:04.389Z,67.49
2023-05-05T07:07:04.373Z,67.39
2023-05-05T07:08:04.350Z,67.02
2023-05-05T07:09:04.351Z,67.65
2023-05-05T07:10:04.333Z,67.65
2023-05-05T07:11:04.370Z,68.85
2023-05-05T07:12:04.403Z,69.29
2023-05-05T07:13:04.380Z,69.19
2023-05-05T07:14:04.312Z,69.59
2023-05-05T07:15:15.464Z,69.76
2023-05-05T07:16:05.313Z,69.89
2023-05-05T07:17:04.258Z,69.66
2023-05-05T07:18:04.275Z,69.56
2023-05-05T07:19:04.217Z,69.06
2023-05-05T07:20:04.210Z,68.62
2023-05-05T07:21:04.454Z,68.22
2023-05-05T07:22:04.203Z,67.69
2023-05-05T07:23:04.197Z,67.39
2023-05-05T07:24:04.196Z,67.59
2023-05-05T07:25:04.154Z,66.49
2023-05-05T07:26:04.168Z,67.16
2023-05-05T07:27:04.146Z,66.05
2023-05-05T07:28:04.168Z,66.05
2023-05-05T07:29:04.106Z,66.05
2023-05-05T07:30:07.854Z,66.16
2023-05-05T07:31:05.117Z,66.52
2023-05-05T07:32:04.108Z,65.99
2023-05-05T07:33:04.119Z,65.69
2023-05-05T07:34:04.052Z,65.62
2023-05-05T07:35:04.042Z,64.29
2023-05-05T07:36:04.045Z,64.19
2023-05-05T07:37:04.024Z,63.86
2023-05-05T07:38:04.020Z,63.33
2023-05-05T07:39:04.001Z,63.13
2023-05-05T07:40:03.988Z,63.43
2023-05-05T07:41:04.017Z,62.50
2023-05-05T07:42:03.961Z,63.10
2023-05-05T07:43:03.946Z,62.77
2023-05-05T07:44:04.034Z,62.87
2023-05-05T07:45:03.926Z,62.37
2023-05-05T07:46:03.977Z,62.15
2023-05-05T07:47:03.913Z,61.85
2023-05-05T07:48:03.962Z,62.24
2023-05-05T07:49:03.877Z,61.65
2023-05-05T07:50:03.885Z,60.25
2023-05-05T07:51:03.896Z,59.65
2023-05-05T07:52:03.865Z,60.45
2023-05-05T07:53:13.787Z,60.38
2023-05-05T07:54:04.839Z,60.97
2023-05-05T07:55:03.851Z,61.05
2023-05-05T07:56:03.893Z,60.55
2023-05-05T07:57:03.807Z,60.85
2023-05-05T07:58:03.828Z,60.12
2023-05-05T07:59:03.824Z,59.42
2023-05-05T08:00:03.872Z,59.19
2023-05-05T08:01:03.765Z,59.19
2023-05-05T08:02:03.761Z,59.59
2023-05-05T08:03:03.884Z,58.97
2023-05-05T08:04:03.847Z,58.47
2023-05-05T08:05:03.698Z,58.87
2023-05-05T08:06:03.706Z,59.06
2023-05-05T08:07:03.695Z,58.76
2023-05-05T08:08:03.689Z,58.94
2023-05-05T08:09:03.659Z,57.75
2023-05-05T08:10:03.665Z,56.92
2023-05-05T08:11:03.658Z,57.02
2023-05-05T08:12:03.640Z,57.09
2023-05-05T08:13:03.652Z,56.20
2023-05-05T08:14:03.626Z,55.90
2023-05-05T08:15:03.585Z,56.27
2023-05-05T08:16:03.720Z,55.77
2023-05-05T08:17:03.566Z,55.38
2023-05-05T08:18:03.620Z,55.05
2023-05-05T08:19:06.256Z,55.15
2023-05-05T08:20:04.549Z,55.25
2023-05-05T08:21:03.537Z,54.85
2023-05-05T08:22:03.525Z,55.35
2023-05-05T08:23:03.556Z,55.05
2023-05-05T08:24:03.494Z,55.94
2023-05-05T08:25:03.491Z,55.15
2023-05-05T08:26:03.470Z,55.02
2023-05-05T08:27:03.481Z,54.10
2023-05-05T08:28:03.464Z,53.11
2023-05-05T08:29:03.449Z,51.92
2023-05-05T08:30:03.436Z,52.31
2023-05-05T08:31:03.463Z,52.51
2023-05-05T08:32:03.518Z,52.02
2023-05-05T08:33:03.424Z,52.12
2023-05-05T08:34:03.396Z,51.72
2023-05-05T08:35:03.402Z,53.11
2023-05-05T08:36:03.380Z,53.11
2023-05-05T08:37:03.365Z,53.01
2023-05-05T08:38:03.350Z,52.79
2023-05-05T08:39:03.319Z,53.38
2023-05-05T08:40:03.355Z,52.39
2023-05-05T08:41:03.365Z,52.19
2023-05-05T08:42:03.310Z,52.69
2023-05-05T08:43:03.298Z,52.66
2023-05-05T08:44:03.288Z,52.86
2023-05-05T08:45:03.273Z,53.36
2023-05-05T08:46:03.270Z,53.33
2023-05-05T08:47:03.253Z,53.26
2023-05-05T08:48:03.355Z,52.24
2023-05-05T08:49:03.219Z,52.34
2023-05-05T08:50:03.207Z,51.42
2023-05-05T08:51:05.435Z,51.12
2023-05-05T08:52:03.248Z,52.02
2023-05-05T08:53:03.260Z,51.72
2023-05-05T08:54:03.169Z,50.73
2023-05-05T08:55:03.145Z,50.63
2023-05-05T08:56:03.143Z,51.05
2023-05-05T08:57:03.159Z,51.67
2023-05-05T08:58:03.116Z,53.06
2023-05-05T08:59:03.134Z,52.54
2023-05-05T09:00:03.112Z,52.73
2023-05-05T09:01:03.123Z,52.84
2023-05-05T09:02:03.106Z,52.41
2023-05-05T09:03:03.193Z,52.29
2023-05-05T09:04:03.165Z,51.70
2023-05-05T09:05:03.036Z,51.67
2023-05-05T09:06:03.023Z,50.78
2023-05-05T09:07:03.025Z,50.06
2023-05-05T09:08:03.003Z,50.93
2023-05-05T09:09:02.988Z,50.83
2023-05-05T09:10:03.018Z,50.34
2023-05-05T09:11:02.979Z,49.42
2023-05-05T09:12:03.013Z,49.01
2023-05-05T09:13:02.956Z,49.42
2023-05-05T09:14:02.985Z,49.20
2023-05-05T09:15:02.925Z,48.90
2023-05-05T09:16:02.919Z,47.72
2023-05-05T09:17:03.011Z,47.72
2023-05-05T09:18:02.978Z,47.72
2023-05-05T09:19:02.904Z,47.86
2023-05-05T09:20:02.965Z,48.46
2023-05-05T09:21:02.864Z,49.15
2023-05-05T09:22:02.867Z,49.74
2023-05-05T09:23:02.875Z,49.25
2023-05-05T09:24:07.790Z,49.13
2023-05-05T09:25:03.812Z,49.22
2023-05-05T09:26:02.826Z,48.63
2023-05-05T09:27:02.827Z,47.91
2023-05-05T09:28:02.806Z,49.20
2023-05-05T09:29:02.780Z,49.49
2023-05-05T09:30:02.767Z,47.60
2023-05-05T09:31:02.810Z,47.40
2023-05-05T09:32:02.782Z,48.27
2023-05-05T09:33:02.775Z,47.67
2023-05-05T09:34:02.728Z,47.75
2023-05-05T09:35:02.726Z,47.45
2023-05-05T09:36:02.798Z,47.33
2023-05-05T09:37:02.725Z,46.62
2023-05-05T09:38:02.694Z,45.73
2023-05-05T09:39:02.674Z,45.73
2023-05-05T09:40:02.658Z,45.71
2023-05-05T09:41:02.652Z,46.00
2023-05-05T09:42:02.686Z,46.20
2023-05-05T09:43:02.642Z,45.78
2023-05-05T09:44:02.614Z,45.68
2023-05-05T09:45:02.604Z,45.61
2023-05-05T09:46:02.615Z,45.98
2023-05-05T09:47:05.261Z,43.74
2023-05-05T09:48:02.602Z,45.24
2023-05-05T09:49:02.579Z,45.36
2023-05-05T09:50:02.565Z,45.67
2023-05-05T09:51:02.535Z,45.87
2023-05-05T09:52:02.560Z,46.26
2023-05-05T09:53:02.582Z,47.65
2023-05-05T09:54:02.508Z,48.02
2023-05-05T09:55:02.519Z,48.32
2023-05-05T09:56:02.484Z,47.33
2023-05-05T09:57:02.493Z,48.02
2023-05-05T09:58:02.514Z,47.50
2023-05-05T09:59:02.477Z,47.88
2023-05-05T10:00:02.582Z,45.71
2023-05-05T10:01:02.447Z,45.90
2023-05-05T10:02:02.464Z,44.92
2023-05-05T10:03:02.483Z,45.29
2023-05-05T10:04:02.416Z,43.93
2023-05-05T10:05:02.585Z,45.75
2023-05-05T10:06:02.377Z,45.97
2023-05-05T10:07:02.378Z,46.29
2023-05-05T10:08:02.391Z,47.10
2023-05-05T10:09:02.359Z,47.79
2023-05-05T10:10:02.439Z,48.51
2023-05-05T10:11:02.337Z,48.90
2023-05-05T10:12:02.336Z,48.93
2023-05-05T10:13:02.381Z,49.52
2023-05-05T10:14:02.304Z,50.04
2023-05-05T10:15:02.337Z,50.73
2023-05-05T10:16:02.310Z,50.34
2023-05-05T10:17:02.250Z,50.66
2023-05-05T10:18:06.682Z,51.25
2023-05-05T10:19:03.232Z,52.17
2023-05-05T10:20:02.222Z,51.87
2023-05-05T10:21:02.248Z,51.89
2023-05-05T10:22:02.216Z,51.50
2023-05-05T10:23:02.200Z,51.10
2023-05-05T10:24:02.362Z,51.89
2023-05-05T10:25:02.166Z,51.10
2023-05-05T10:26:02.174Z,51.03
2023-05-05T10:27:02.161Z,50.43
2023-05-05T10:28:02.149Z,51.03
2023-05-05T10:29:02.159Z,51.15
2023-05-05T10:30:02.129Z,51.42
2023-05-05T10:31:02.239Z,51.45
2023-05-05T10:32:10.278Z,52.04
2023-05-05T10:33:18.309Z,51.72
2023-05-05T10:34:03.370Z,51.72
2023-05-05T10:35:02.104Z,49.64
2023-05-05T10:36:02.070Z,50.13
2023-05-05T10:37:02.094Z,50.53
2023-05-05T10:38:02.035Z,51.52
2023-05-05T10:39:02.031Z,51.72
2023-05-05T10:40:02.046Z,51.12
2023-05-05T10:41:02.196Z,50.60
2023-05-05T10:42:02.004Z,50.90
2023-05-05T10:43:02.030Z,51.40
2023-05-05T10:44:04.459Z,51.99
2023-05-05T10:45:02.055Z,50.68
2023-05-05T10:46:02.003Z,49.69
2023-05-05T10:47:01.932Z,50.09
2023-05-05T10:48:02.026Z,50.48
2023-05-05T10:49:02.002Z,50.29
2023-05-05T10:50:01.923Z,51.18
2023-05-05T10:51:01.895Z,50.78
2023-05-05T10:52:01.882Z,50.31
2023-05-05T10:53:01.887Z,49.62
2023-05-05T10:54:01.923Z,50.81
2023-05-05T10:55:01.868Z,51.30
2023-05-05T10:56:01.945Z,51.10
2023-05-05T10:57:01.843Z,49.22
2023-05-05T10:58:01.833Z,49.62
2023-05-05T10:59:01.797Z,49.44
2023-05-05T11:00:01.837Z,49.66
2023-05-05T11:01:01.812Z,49.15
2023-05-05T11:02:01.772Z,49.17
2023-05-05T11:03:01.799Z,47.88
2023-05-05T11:04:01.904Z,48.00
2023-05-05T11:05:01.768Z,48.69
2023-05-05T11:06:01.740Z,47.90
2023-05-05T11:07:01.723Z,47.83
2023-05-05T11:08:01.716Z,48.22
2023-05-05T11:09:01.689Z,48.02
2023-05-05T11:10:01.900Z,49.44
2023-05-05T11:11:01.699Z,49.96
2023-05-05T11:12:01.765Z,49.93
2023-05-05T11:13:01.711Z,50.33
2023-05-05T11:14:01.648Z,50.95
2023-05-05T11:15:01.622Z,51.05
2023-05-05T11:16:01.645Z,51.37
2023-05-05T11:17:01.707Z,51.28
2023-05-05T11:18:04.829Z,52.86
2023-05-05T11:19:02.588Z,54.28
2023-05-05T11:20:01.612Z,56.59
2023-05-05T11:21:01.568Z,57.71
2023-05-05T11:22:01.562Z,57.22
2023-05-05T11:23:01.541Z,57.35
2023-05-05T11:24:01.538Z,58.57
2023-05-05T11:25:01.520Z,61.99
2023-05-05T11:26:01.521Z,62.88
2023-05-05T11:27:01.507Z,64.71
2023-05-05T11:28:01.589Z,67.20
2023-05-05T11:29:01.491Z,68.53
2023-05-05T11:30:01.517Z,69.16
2023-05-05T11:31:01.621Z,72.72
2023-05-05T11:32:01.445Z,71.59
2023-05-05T11:33:01.475Z,75.74
2023-05-05T11:34:01.407Z,78.15
2023-05-05T11:35:01.466Z,82.04
2023-05-05T11:36:04.271Z,82.72
2023-05-05T11:37:01.396Z,84.25
2023-05-05T11:38:01.376Z,86.04
2023-05-05T11:42:31.805Z,92.22
2023-05-05T11:43:31.768Z,93.48
2023-05-05T11:44:31.775Z,93.12
2023-05-05T11:45:31.733Z,94.23
2023-05-05T11:46:31.759Z,94.57
2023-05-05T11:47:31.796Z,94.87
2023-05-05T11:48:31.694Z,95.28
2023-05-05T11:49:31.718Z,95.98
2023-05-05T11:50:31.706Z,96.59
2023-05-05T11:51:31.683Z,96.23
2023-05-05T11:52:31.673Z,96.34
2023-05-05T11:53:31.648Z,96.94
2023-05-05T11:54:31.648Z,96.64
2023-05-05T11:55:31.627Z,97.25
2023-05-05T11:56:31.642Z,98.31
2023-05-05T11:57:31.616Z,97.96
2023-05-05T11:58:31.597Z,98.16
2023-05-05T11:59:31.664Z,97.91
2023-05-05T12:00:31.576Z,97.80
2023-05-05T12:01:31.593Z,99.02
2023-05-05T12:02:31.739Z,99.32
2023-05-05T12:03:31.752Z,99.42
2023-05-05T12:04:31.571Z,99.18
2023-05-05T12:05:32.016Z,99.52
2023-05-05T12:06:31.503Z,99.32
2023-05-05T12:07:31.548Z,99.48
2023-05-05T12:08:31.494Z,99.32
2023-05-05T12:09:31.462Z,99.68
2023-05-05T12:10:31.464Z,99.88
2023-05-05T12:11:31.435Z,99.68
2023-05-05T12:12:31.464Z,99.68
2023-05-05T12:13:31.457Z,99.98
2023-05-05T12:14:31.416Z,99.84
2023-05-05T12:15:31.598Z,99.68
2023-05-05T12:16:31.441Z,99.99
2023-05-05T12:17:31.404Z,99.99
2023-05-05T12:18:31.379Z,99.99
2023-05-05T12:19:31.348Z,99.99
2023-05-05T12:20:31.350Z,99.99
2023-05-05T12:21:31.350Z,99.99
2023-05-05T12:22:31.333Z,99.99
2023-05-05T12:23:31.331Z,99.99
2023-05-05T12:24:31.291Z,99.99
2023-05-05T12:25:31.281Z,99.99
2023-05-05T12:26:31.279Z,99.99
2023-05-05T12:27:31.280Z,99.99
2023-05-05T12:28:31.265Z,99.99
2023-05-05T12:29:31.252Z,99.99
2023-05-05T12:30:31.261Z,99.99
2023-05-05T12:31:31.296Z,99.99
2023-05-05T12:32:31.239Z,99.99
2023-05-05T12:33:31.245Z,99.99
2023-05-05T12:34:31.204Z,99.99
2023-05-05T12:35:31.194Z,99.99
2023-05-05T12:36:31.163Z,99.99
2023-05-05T12:37:31.149Z,99.99
2023-05-05T12:38:31.182Z,99.99
2023-05-05T12:39:31.131Z,99.99
2023-05-05T12:40:31.120Z,99.50
2023-05-05T12:41:31.121Z,99.50
2023-05-05T12:42:31.116Z,99.70
2023-05-05T12:43:31.151Z,99.50
2023-05-05T12:44:31.101Z,98.49
2023-05-05T12:45:31.069Z,98.29
2023-05-05T12:46:31.252Z,98.13
2023-05-05T12:47:31.165Z,98.39
2023-05-05T12:48:31.058Z,97.63
2023-05-05T12:49:31.039Z,97.03
2023-05-05T12:50:31.029Z,96.62
2023-05-05T12:51:31.041Z,96.12
2023-05-05T12:52:31.003Z,95.51
2023-05-05T12:53:30.977Z,94.71
2023-05-05T12:54:30.966Z,95.46
2023-05-05T12:55:30.985Z,94.65